createdAt,value
2023-02-15T00:22:58.197Z,63.13
2023-02-15T00:53:01.620Z,86.23
2023-02-15T01:23:05.890Z,92.03
2023-02-15T01:53:08.757Z,128.00
2023-02-15T02:23:12.297Z,127.65
2023-02-15T02:53:15.406Z,137.90
2023-02-15T03:23:20.098Z,137.73
2023-02-15T03:53:23.260Z,109.07
2023-02-15T04:23:26.845Z,111.70
2023-02-15T04:53:30.260Z,118.37
2023-02-15T05:23:33.871Z,115.07
2023-02-15T05:53:37.324Z,105.30
2023-02-15T06:23:40.998Z,101.70
2023-02-15T06:53:43.833Z,98.63
2023-02-15T07:23:47.619Z,94.90
2023-02-15T07:53:50.490Z,86.27
2023-02-15T08:23:54.288Z,87.73
2023-02-15T08:53:57.228Z,55.97
2023-02-15T09:24:00.778Z,51.30
2023-02-15T09:54:03.690Z,45.30
2023-02-15T10:24:07.184Z,36.70
2023-02-15T10:54:09.982Z,40.70
2023-02-15T11:24:13.609Z,39.77
2023-02-15T11:54:16.475Z,41.27
2023-02-15T12:24:20.030Z,43.43
2023-02-15T12:54:23.977Z,48.50
2023-02-15T13:24:27.773Z,39.63
2023-02-15T13:54:30.659Z,47.90
2023-02-15T14:24:34.341Z,54.37
2023-02-15T14:54:39.980Z,47.57
2023-02-15T15:24:42.992Z,47.80
2023-02-15T15:54:46.333Z,47.13
2023-02-15T16:24:49.380Z,57.45
2023-02-15T16:54:52.267Z,67.40
2023-02-15T17:24:56.160Z,75.33
2023-02-15T17:54:59.042Z,70.37
2023-02-15T18:25:02.513Z,68.60
2023-02-15T18:55:05.646Z,72.93
2023-02-15T19:25:09.254Z,70.80
2023-02-15T19:55:13.334Z,84.55
2023-02-15T20:25:16.530Z,95.13
2023-02-15T20:55:19.994Z,90.65
2023-02-15T21:25:23.567Z,118.63
2023-02-15T21:55:26.761Z,100.10
2023-02-15T22:25:30.235Z,120.53
2023-02-15T22:55:34.073Z,122.23
2023-02-15T23:25:37.257Z,111.70
2023-02-15T23:55:41.147Z,111.35
